• Join FlightAware (Why Join?)
  • Login
  • US Flag 
12:08AM EDT


 

Airport Tracker/Info


-or-


 

Live Flight TrackerFlight Track Log ✈ SWA920 ✈ 22-Apr-2013 ✈ KBWI - KBOS

Flight Track Log - Related Links

Times and Time Zones

All times are in EDT time to prevent confusion due to time zone crossing. See the SWA920 flight status page for this flight to view local times or setup timezone preferences in your user account.

Time Position Orientation Groundspeed Altitude Reporting Facility
EDT Latitude Longitude Course Direction KTS MPH feet Rate Location/Type
10:17PM 39.1500 -76.6500 101° East 151 174 1,500  Level Potomac TRACON
10:20PM 39.1267 -76.4958 101° East 204 235 7,100 2,580 Climbing Washington Center
10:21PM 39.1317 -76.3889 87° East 252 290 10,200 2,400 Climbing Washington Center
10:22PM 39.1469 -76.2528 82° East 323 372 12,000 3,060 Climbing Washington Center
10:23PM 39.1664 -76.1136 80° East 364 419 16,400 3,360 Climbing Washington Center
10:24PM 39.1836 -75.9639 82° East 402 463 18,800 2,400 Climbing Washington Center
10:25PM 39.2361 -75.8275 64° Northeast 420 483 21,300 2,280 Climbing Washington Center
10:26PM 39.3239 -75.7122 45° Northeast 420 483 23,400 1,860 Climbing Washington Center
10:27PM 39.4197 -75.5861 45° Northeast 458 527 25,100 1,740 Climbing Washington Center
10:29PM 39.6275 -75.3208 44° Northeast 492 566 28,600 1,800 Climbing New York Center
10:30PM 39.7289 -75.1786 47° Northeast 509 586 30,500 1,920 Climbing New York Center
10:31PM 39.8306 -75.0256 49° Northeast 535 616 32,500 1,800 Climbing New York Center
10:32PM 39.9314 -74.8856 47° Northeast 541 623 34,200 1,380 Climbing New York Center
10:33PM 40.0300 -74.7450 47° Northeast 541 623 35,400 1,260 Climbing New York Center
10:34PM 40.1350 -74.5908 48° Northeast 546 628 36,700 780 Climbing New York Center
10:35PM 40.2272 -74.4464 50° Northeast 556 640 37,000 120 Climbing New York Center
10:36PM 40.3258 -74.2911 50° Northeast 562 647 37,000  Level New York Center
10:37PM 40.4242 -74.1353 50° Northeast 557 641 37,000 -1,980 Level New York Center
10:39PM 40.6333 -73.8047 50° Northeast 568 654 31,200 -2,940 Descending Boston Center
10:40PM 40.7183 -73.6642 51° Northeast 561 646 28,300 -3,000 Descending Boston Center
10:41PM 40.8114 -73.5122 51° Northeast 550 633 25,300 -2,220 Descending Boston Center
10:42PM 40.9003 -73.3736 50° Northeast 522 601 23,900 -1,080 Descending Boston Center
10:43PM 40.9950 -73.2267 49° Northeast 494 568 23,200 -480 Descending Boston Center
10:44PM 41.0628 -73.0789 59° Northeast 478 550 23,000 -120 Descending Boston Center
10:45PM 41.1342 -72.9361 56° Northeast 464 534 23,000  Level Boston Center
10:46PM 41.2036 -72.7906 58° Northeast 458 527 23,000  Level Boston Center
10:47PM 41.2706 -72.6444 59° Northeast 458 527 23,000  Level Boston Center
10:48PM 41.3353 -72.5119 57° Northeast 463 533 23,000  Level Boston Center
10:49PM 41.4064 -72.3653 57° Northeast 469 540 23,000 -180 Level Boston Center
10:50PM 41.4811 -72.2072 58° Northeast 469 540 22,700 -1,440 Descending Boston Center
10:51PM 41.5308 -72.0686 64° Northeast 464 534 20,200 -2,280 Descending Boston Center
10:52PM 41.5803 -71.9267 65° Northeast 439 505 18,200 -2,400 Descending Boston Center
10:53PM 41.6253 -71.7708 69° East 418 481 15,400 -2,640 Descending Boston Center
10:54PM 41.6619 -71.6481 68° East 394 453 13,000 -2,040 Descending Boston Center
10:55PM 41.7025 -71.5058 69° East 380 437 11,400 -1,080 Descending Boston Center
10:56PM 41.7369 -71.3997 66° East 331 381 10,900 -300 Descending Boston Center
10:57PM 41.7925 -71.3208 47° Northeast 303 349 10,900  Level Boston Center
10:58PM 41.8564 -71.2528 38° Northeast 283 326 10,900 -660 Level Boston Center
10:59PM 41.9331 -71.2122 21° North 283 326 9,600 -1,620 Descending Boston Center
11:00PM 42.0500 -71.1500 22° Northeast 294 338 6,900 -1,680 Descending KA90
11:01PM 42.1167 -71.1167 20° North 247 284 5,500 -1,380 Descending KA90
11:02PM 42.1667 -71.1000 14° North 207 238 4,300 -1,320 Descending KA90
11:03PM 42.2167 -71.0667 26° Northeast 176 203 3,100 -1,140 Descending KA90
11:04PM 42.2500 -71.0500 20° North 150 173 2,100 -900 Descending KA90
11:05PM 42.3000 -71.0333 14° North 144 166 1,400 -780 Descending KA90
11:06PM 42.3333 -71.0167 20° North 126 145 700 -720 Descending KA90
11:08PM 42.3500 -71.0000 North  Level FlightAware Approximate
11:15PM 42.3630 -71.0064 North  Level Estimated